createdAt,value
2023-05-01T00:01:23.494Z,4.07
2023-05-01T00:11:25.709Z,4.60
2023-05-01T00:21:28.690Z,4.20
2023-05-01T00:31:33.052Z,4.37
2023-05-01T00:41:38.138Z,4.70
2023-05-01T00:51:40.587Z,3.93
2023-05-01T01:01:44.023Z,3.80
2023-05-01T01:12:27.738Z,4.47
2023-05-01T01:22:34.895Z,3.40
2023-05-01T01:32:58.554Z,3.77
2023-05-01T01:43:08.921Z,3.57
2023-05-01T01:53:12.444Z,3.50
2023-05-01T02:03:20.466Z,3.10
2023-05-01T02:13:26.991Z,3.60
2023-05-01T02:23:33.783Z,2.90
2023-05-01T02:33:40.919Z,3.30
2023-05-01T02:43:48.104Z,4.17
2023-05-01T02:53:50.815Z,4.53
2023-05-01T03:03:57.181Z,3.90
2023-05-01T03:14:02.083Z,4.90
2023-05-01T03:24:07.418Z,4.97
2023-05-01T03:34:10.247Z,4.17
2023-05-01T03:44:12.571Z,4.13
2023-05-01T03:54:22.435Z,5.17
2023-05-01T04:04:34.302Z,4.47
2023-05-01T04:14:40.588Z,3.93
2023-05-01T04:24:43.278Z,3.63
2023-05-01T04:34:47.317Z,4.27
2023-05-01T04:44:55.133Z,3.77
2023-05-01T04:54:58.180Z,3.70
2023-05-01T05:05:06.119Z,3.90
2023-05-01T05:15:09.053Z,3.63
2023-05-01T05:25:16.043Z,2.78
2023-05-01T05:35:23.113Z,2.20
2023-05-01T05:45:27.705Z,2.33
2023-05-01T05:55:30.074Z,3.13
2023-05-01T06:05:38.067Z,3.38
2023-05-01T06:15:45.932Z,2.60
2023-05-01T06:25:49.480Z,3.00
2023-05-01T06:35:57.941Z,2.53
2023-05-01T06:46:05.662Z,2.40
2023-05-01T06:56:11.280Z,2.47
2023-05-01T07:06:16.224Z,2.38
2023-05-01T07:16:25.710Z,2.25
2023-05-01T07:26:32.632Z,2.22
2023-05-01T07:36:38.053Z,2.70
2023-05-01T07:46:42.027Z,2.78
2023-05-01T07:56:49.689Z,2.72
2023-05-01T08:06:57.905Z,2.13
2023-05-01T08:17:07.581Z,2.92
2023-05-01T08:27:11.013Z,3.05
2023-05-01T08:37:20.062Z,3.38
2023-05-01T08:47:23.210Z,2.70
2023-05-01T08:57:35.809Z,2.65
2023-05-01T09:07:41.668Z,2.42
2023-05-01T09:17:46.154Z,2.92
2023-05-01T09:27:52.035Z,2.38
2023-05-01T09:37:58.084Z,2.30
2023-05-01T09:48:11.872Z,2.03
2023-05-01T09:58:29.692Z,2.05
2023-05-01T10:08:50.749Z,2.65
2023-05-01T10:18:58.494Z,2.35
2023-05-01T10:29:06.301Z,1.77
2023-05-01T10:39:36.504Z,2.35
2023-05-01T10:50:07.699Z,2.88
2023-05-01T11:00:10.716Z,1.50
2023-05-01T11:10:33.654Z,2.00
2023-05-01T11:20:56.212Z,2.30
2023-05-01T11:31:00.895Z,1.65
2023-05-01T11:41:05.782Z,1.92
2023-05-01T11:51:14.511Z,1.70
2023-05-01T12:01:18.166Z,1.40
2023-05-01T12:11:31.672Z,1.75
2023-05-01T12:21:36.221Z,1.60
2023-05-01T12:31:50.088Z,1.70
2023-05-01T12:42:00.319Z,1.80
2023-05-01T12:52:09.932Z,1.58
2023-05-01T13:02:17.287Z,1.70
2023-05-01T13:12:22.250Z,1.75
2023-05-01T13:22:43.291Z,1.70
2023-05-01T13:32:51.140Z,1.67
2023-05-01T13:43:00.434Z,1.30
2023-05-01T13:53:09.503Z,1.92
2023-05-01T14:03:16.290Z,1.58
2023-05-01T14:13:21.822Z,1.50
2023-05-01T14:23:28.127Z,2.03
2023-05-01T14:33:50.555Z,1.90
2023-05-01T14:43:55.348Z,1.40
2023-05-01T14:54:01.248Z,1.70
2023-05-01T15:04:08.310Z,1.80
2023-05-01T15:14:10.817Z,1.67
2023-05-01T15:24:18.389Z,1.70
2023-05-01T15:34:21.714Z,2.08
2023-05-01T15:44:24.158Z,2.20
2023-05-01T15:54:28.104Z,2.20
2023-05-01T16:04:31.288Z,1.67
2023-05-01T16:14:44.722Z,2.05
2023-05-01T16:24:48.835Z,2.78
2023-05-01T16:34:51.148Z,2.13
2023-05-01T16:44:54.275Z,2.22
2023-05-01T16:55:02.302Z,2.10
2023-05-01T17:05:06.579Z,2.40
2023-05-01T17:15:09.780Z,2.35
2023-05-01T17:25:14.637Z,2.50
2023-05-01T17:35:17.117Z,2.85
2023-05-01T17:45:21.074Z,2.17
2023-05-01T17:55:39.275Z,2.40
2023-05-01T18:05:46.671Z,2.80
2023-05-01T18:15:57.488Z,2.65
2023-05-01T18:26:02.518Z,2.67
2023-05-01T18:36:11.492Z,2.55
2023-05-01T18:46:13.834Z,2.75
2023-05-01T18:56:17.133Z,2.72
2023-05-01T19:06:21.854Z,2.92
2023-05-01T19:16:27.958Z,3.65
2023-05-01T19:26:39.634Z,3.72
2023-05-01T19:36:45.036Z,4.20
2023-05-01T19:46:55.382Z,3.95
2023-05-01T19:56:58.886Z,3.85
2023-05-01T20:07:04.909Z,4.00
2023-05-01T20:17:10.542Z,4.07
2023-05-01T20:27:17.827Z,4.22
2023-05-01T20:37:22.530Z,3.90
2023-05-01T20:47:28.270Z,3.72
2023-05-01T20:57:35.614Z,3.08
2023-05-01T21:07:40.260Z,4.53
2023-05-01T21:17:44.892Z,4.82
2023-05-01T21:27:52.678Z,3.67
2023-05-01T21:37:59.240Z,4.22
2023-05-01T21:48:01.725Z,4.60
2023-05-01T21:58:04.454Z,4.43
2023-05-01T22:08:06.995Z,4.70
2023-05-01T22:18:09.452Z,4.78
2023-05-01T22:28:11.565Z,4.43
2023-05-01T22:38:16.121Z,4.47
2023-05-01T22:48:19.443Z,5.00
2023-05-01T22:58:24.180Z,5.53
2023-05-01T23:08:29.081Z,5.30
2023-05-01T23:18:33.372Z,5.65
2023-05-01T23:28:46.727Z,4.67
2023-05-01T23:38:56.420Z,5.45
2023-05-01T23:49:03.931Z,5.18
2023-05-01T23:59:12.691Z,5.05
